Time;durP1;ratioP1;P1;durP2;ratioP2;P2;SDS_P1;SDS_P2;PMS_P1;PMS_P2;Temp;Humidity;BMP_temperature;BMP_pressure;BME280_temperature;BME280_humidity;BME280_pressure;Samples;Min_cycle;Max_cycle;Signal;HPM_P1;HPM_P2
2022/01/29 00:01:21;;;;;;;20.20;13.37;;;6.30;99.90;;;;;;5052916;28;20175;-64
2022/01/29 00:03:46;;;;;;;19.87;14.37;;;6.30;99.90;;;;;;5044452;28;20195;-64
2022/01/29 00:06:12;;;;;;;19.23;13.97;;;6.30;99.90;;;;;;5032887;28;20190;-64
2022/01/29 00:08:37;;;;;;;19.60;12.87;;;6.40;99.90;;;;;;5037070;28;20232;-65
2022/01/29 00:11:10;;;;;;;20.37;14.57;;;6.50;99.90;;;;;;5052766;28;20705;-64
2022/01/29 00:13:37;;;;;;;17.60;13.83;;;6.50;99.90;;;;;;5050614;28;20293;-64
2022/01/29 00:16:02;;;;;;;20.23;14.37;;;6.50;99.90;;;;;;5052552;28;20196;-63
2022/01/29 00:18:28;;;;;;;17.40;13.83;;;6.50;99.90;;;;;;5048853;28;20222;-63
2022/01/29 00:20:54;;;;;;;18.30;13.87;;;6.50;99.90;;;;;;5032528;28;20172;-64
2022/01/29 00:23:19;;;;;;;17.37;14.27;;;6.60;99.90;;;;;;5033943;28;20636;-64
2022/01/29 00:25:45;;;;;;;18.80;16.00;;;6.60;99.90;;;;;;5052478;28;20557;-64
2022/01/29 00:28:12;;;;;;;21.87;15.70;;;6.60;99.90;;;;;;5051899;28;20220;-65
2022/01/29 00:30:42;;;;;;;17.07;15.33;;;6.70;99.90;;;;;;5032505;28;20175;-64
2022/01/29 00:33:08;;;;;;;20.10;15.07;;;6.70;99.90;;;;;;5032016;28;20183;-64
2022/01/29 00:35:34;;;;;;;19.17;14.43;;;6.70;99.90;;;;;;5050702;28;20187;-64
2022/01/29 00:37:59;;;;;;;20.23;15.50;;;6.70;99.90;;;;;;5051791;28;20230;-63
2022/01/29 00:40:25;;;;;;;20.63;16.03;;;6.70;99.90;;;;;;5034643;28;20176;-64
2022/01/29 00:42:51;;;;;;;21.50;16.33;;;6.70;99.90;;;;;;5046779;28;20648;-65
2022/01/29 00:45:17;;;;;;;21.97;15.17;;;6.70;99.90;;;;;;5052023;28;20191;-64
2022/01/29 00:47:42;;;;;;;23.50;15.30;;;6.70;99.90;;;;;;5036952;28;20249;-65
2022/01/29 00:50:10;;;;;;;19.40;15.67;;;6.70;99.90;;;;;;5030548;28;20179;-64
2022/01/29 00:52:36;;;;;;;21.70;15.70;;;6.70;99.90;;;;;;5043458;28;20218;-64
2022/01/29 00:55:02;;;;;;;18.90;14.60;;;6.70;99.90;;;;;;5051832;28;20248;-64
2022/01/29 00:57:30;;;;;;;20.93;15.50;;;6.80;99.90;;;;;;5041458;28;20222;-63
2022/01/29 00:59:56;;;;;;;19.43;15.17;;;6.80;99.90;;;;;;5031750;28;20636;-63
2022/01/29 01:02:22;;;;;;;21.97;15.20;;;6.80;99.90;;;;;;5040597;28;20228;-63
2022/01/29 01:04:48;;;;;;;22.73;14.53;;;6.80;99.90;;;;;;5051624;28;20656;-64
2022/01/29 01:07:13;;;;;;;24.97;15.53;;;6.80;99.90;;;;;;5050112;28;20218;-65
2022/01/29 01:09:39;;;;;;;26.43;14.53;;;6.80;99.90;;;;;;5051628;28;20600;-65
2022/01/29 01:12:05;;;;;;;19.57;15.07;;;6.80;99.90;;;;;;5045259;28;20179;-64
2022/01/29 01:14:31;;;;;;;26.20;16.03;;;6.80;99.90;;;;;;5031556;28;20247;-63
2022/01/29 01:16:56;;;;;;;19.87;15.23;;;6.70;99.90;;;;;;5035407;28;20186;-64
2022/01/29 01:19:25;;;;;;;18.63;14.30;;;6.80;99.90;;;;;;5051593;28;20608;-64
2022/01/29 01:21:56;;;;;;;16.80;14.57;;;6.80;99.90;;;;;;5048281;28;20170;-65
2022/01/29 01:24:22;;;;;;;20.97;14.67;;;6.80;99.90;;;;;;5031531;28;20187;-65
2022/01/29 01:26:48;;;;;;;21.63;15.23;;;6.80;99.90;;;;;;5033076;28;20168;-64
2022/01/29 01:29:14;;;;;;;21.20;15.20;;;6.80;99.90;;;;;;5051413;28;20637;-64
2022/01/29 01:31:40;;;;;;;17.87;14.30;;;6.80;99.90;;;;;;5051070;28;20175;-64
2022/01/29 01:34:07;;;;;;;21.97;16.73;;;6.80;99.90;;;;;;5031081;28;20417;-64
2022/01/29 01:36:38;;;;;;;19.83;16.37;;;6.80;99.90;;;;;;5047252;28;20648;-64
2022/01/29 01:39:08;;;;;;;26.60;15.53;;;6.80;99.90;;;;;;5051294;28;20290;-64
2022/01/29 01:41:39;;;;;;;20.10;16.80;;;6.80;99.90;;;;;;5038499;28;20233;-63
2022/01/29 01:44:05;;;;;;;26.50;17.57;;;6.70;99.90;;;;;;5050961;28;20197;-63
2022/01/29 01:46:31;;;;;;;23.07;16.57;;;6.70;99.90;;;;;;5051357;28;20246;-63
2022/01/29 01:48:57;;;;;;;24.37;17.63;;;6.70;99.90;;;;;;5052807;28;20662;-64
2022/01/29 01:51:24;;;;;;;25.93;17.03;;;6.80;99.90;;;;;;5055429;28;20175;-64
2022/01/29 01:53:49;;;;;;;24.67;17.03;;;6.80;99.90;;;;;;5053166;28;20249;-63
2022/01/29 01:56:15;;;;;;;17.83;15.60;;;6.90;99.90;;;;;;5055128;28;20663;-64
2022/01/29 01:58:41;;;;;;;21.17;16.80;;;6.90;99.90;;;;;;5053400;28;20618;-63
2022/01/29 02:01:07;;;;;;;23.17;16.90;;;6.90;99.90;;;;;;5053668;28;20210;-63
2022/01/29 02:03:33;;;;;;;23.13;14.13;;;6.90;99.90;;;;;;5044293;28;20712;-64
2022/01/29 02:05:59;;;;;;;19.30;14.73;;;6.90;99.90;;;;;;5035152;28;20218;-63
2022/01/29 02:08:25;;;;;;;18.60;15.67;;;6.90;99.90;;;;;;5044814;28;20231;-64
2022/01/29 02:10:51;;;;;;;22.17;16.23;;;6.90;99.90;;;;;;5053153;28;20210;-63
2022/01/29 02:13:17;;;;;;;25.40;15.90;;;6.90;99.90;;;;;;5046148;28;20180;-63
2022/01/29 02:15:42;;;;;;;21.37;15.60;;;6.90;99.90;;;;;;5045397;28;20189;-63
2022/01/29 02:18:13;;;;;;;20.20;14.47;;;6.90;99.90;;;;;;5048125;28;20299;-64
2022/01/29 02:20:40;;;;;;;21.27;16.47;;;6.90;99.90;;;;;;5034740;28;20175;-63
2022/01/29 02:23:05;;;;;;;24.97;15.93;;;6.90;99.90;;;;;;5039542;28;20189;-63
2022/01/29 02:25:42;;;;;;;18.20;13.63;;;6.90;99.90;;;;;;5054757;28;20162;-64
2022/01/29 02:28:16;;;;;;;17.97;14.27;;;6.90;99.90;;;;;;5052908;28;20171;-63
2022/01/29 02:30:45;;;;;;;19.33;13.93;;;7.00;99.90;;;;;;5054482;28;20214;-63
2022/01/29 02:33:14;;;;;;;18.23;14.67;;;7.00;99.90;;;;;;5052656;28;20229;-64
2022/01/29 02:35:45;;;;;;;18.03;13.93;;;7.00;99.90;;;;;;5054326;28;20640;-64
2022/01/29 02:38:13;;;;;;;19.57;14.57;;;7.00;99.90;;;;;;5037309;28;20203;-63
2022/01/29 02:40:48;;;;;;;20.13;14.87;;;7.00;99.90;;;;;;5033106;28;20179;-63
2022/01/29 02:43:24;;;;;;;18.87;14.17;;;7.00;99.90;;;;;;5050602;28;20248;-63
2022/01/29 02:45:52;;;;;;;22.23;14.50;;;7.10;99.90;;;;;;5054316;28;20553;-64
2022/01/29 02:48:18;;;;;;;17.83;13.10;;;7.10;99.90;;;;;;5037278;28;20258;-64
2022/01/29 02:50:44;;;;;;;19.67;14.70;;;7.10;99.90;;;;;;5034236;28;20224;-63
2022/01/29 02:53:09;;;;;;;18.67;14.07;;;7.10;99.90;;;;;;5048351;28;20648;-64
2022/01/29 02:55:35;;;;;;;22.83;15.50;;;7.10;99.90;;;;;;5034373;28;20183;-64
2022/01/29 02:58:02;;;;;;;20.43;14.03;;;7.10;99.90;;;;;;5046933;28;20210;-64
2022/01/29 03:00:28;;;;;;;17.13;13.80;;;7.10;99.90;;;;;;5053751;28;20175;-64
2022/01/29 03:02:53;;;;;;;19.73;14.10;;;7.10;99.90;;;;;;5040551;28;20179;-64
2022/01/29 03:05:19;;;;;;;23.50;16.53;;;7.00;99.90;;;;;;5034053;28;20188;-63
2022/01/29 03:07:45;;;;;;;19.80;13.90;;;7.00;99.90;;;;;;5037744;28;20245;-63
2022/01/29 03:10:11;;;;;;;16.37;14.43;;;7.10;99.90;;;;;;5033725;28;20641;-64
2022/01/29 03:12:40;;;;;;;23.77;15.90;;;7.10;99.90;;;;;;5051629;28;20683;-64
2022/01/29 03:15:07;;;;;;;26.73;15.93;;;7.10;99.90;;;;;;5053672;28;20217;-63
2022/01/29 03:17:33;;;;;;;23.50;15.87;;;7.10;99.90;;;;;;5036209;28;20179;-63
2022/01/29 03:19:58;;;;;;;18.80;14.90;;;7.10;99.90;;;;;;5033733;28;20627;-63
2022/01/29 03:22:24;;;;;;;21.10;15.83;;;7.10;99.90;;;;;;5048760;28;20253;-63
2022/01/29 03:24:50;;;;;;;24.10;15.77;;;7.00;99.90;;;;;;5053809;28;20183;-64
2022/01/29 03:27:15;;;;;;;22.37;14.27;;;7.00;99.90;;;;;;5039706;28;20538;-64
2022/01/29 03:29:41;;;;;;;26.27;14.93;;;7.00;99.90;;;;;;5033586;28;20175;-64
2022/01/29 03:32:07;;;;;;;18.27;14.40;;;7.00;99.90;;;;;;5045052;28;20183;-64
2022/01/29 03:34:33;;;;;;;21.23;15.13;;;7.00;99.90;;;;;;5053362;28;20195;-64
2022/01/29 03:36:59;;;;;;;20.13;16.23;;;7.00;99.90;;;;;;5043222;28;20657;-64
2022/01/29 03:39:26;;;;;;;18.73;16.00;;;7.00;99.90;;;;;;5033403;28;20750;-64
2022/01/29 03:41:54;;;;;;;21.47;14.73;;;7.00;99.90;;;;;;5040493;28;20644;-64
2022/01/29 03:44:20;;;;;;;14.57;13.03;;;7.00;99.90;;;;;;5052901;28;20186;-64
2022/01/29 03:46:46;;;;;;;16.53;13.37;;;7.00;99.90;;;;;;5045359;28;20692;-64
2022/01/29 03:49:12;;;;;;;17.73;14.00;;;7.00;99.90;;;;;;5032061;28;20313;-64
2022/01/29 03:51:37;;;;;;;17.90;13.90;;;7.00;99.90;;;;;;5038762;28;20179;-64
2022/01/29 03:54:03;;;;;;;17.80;14.43;;;6.90;99.90;;;;;;5052586;28;20841;-64
2022/01/29 03:56:29;;;;;;;21.57;15.30;;;6.90;99.90;;;;;;5048808;28;20186;-64
2022/01/29 03:58:54;;;;;;;20.20;15.20;;;6.90;99.90;;;;;;5032912;28;20300;-64
2022/01/29 04:01:20;;;;;;;17.47;13.43;;;6.90;99.90;;;;;;5034065;28;20195;-64
2022/01/29 04:03:46;;;;;;;20.13;14.67;;;6.90;99.90;;;;;;5031643;28;20633;-64
2022/01/29 04:06:12;;;;;;;22.07;15.23;;;6.90;99.90;;;;;;5031979;28;20176;-63
2022/01/29 04:08:41;;;;;;;21.20;14.03;;;6.90;99.90;;;;;;5052370;28;20171;-63
2022/01/29 04:11:10;;;;;;;17.30;13.80;;;6.90;99.90;;;;;;5051992;28;20571;-63
2022/01/29 04:13:37;;;;;;;16.90;14.23;;;6.90;99.90;;;;;;5033026;28;20203;-64
2022/01/29 04:16:03;;;;;;;19.40;14.53;;;6.90;99.90;;;;;;5032512;28;20176;-64
2022/01/29 04:18:28;;;;;;;19.70;15.37;;;6.80;99.90;;;;;;5050672;28;20285;-64
2022/01/29 04:20:54;;;;;;;19.37;13.73;;;6.80;99.90;;;;;;5051334;28;20175;-64
2022/01/29 04:23:20;;;;;;;18.30;13.83;;;6.80;99.90;;;;;;5035431;28;20176;-64
2022/01/29 04:25:45;;;;;;;19.13;13.30;;;6.80;99.90;;;;;;5032462;28;20641;-64
2022/01/29 04:28:13;;;;;;;14.60;12.97;;;6.90;99.90;;;;;;5033381;28;20190;-63
2022/01/29 04:30:49;;;;;;;18.67;13.67;;;6.80;99.90;;;;;;5032441;28;20168;-63
2022/01/29 04:35:41;;;;;;;15.37;13.13;;;6.90;99.90;;;;;;5052334;28;20174;-64
2022/01/29 04:38:07;;;;;;;16.63;13.00;;;6.80;99.90;;;;;;5038750;28;20208;-64
2022/01/29 04:40:35;;;;;;;15.63;12.73;;;6.80;99.90;;;;;;5032276;28;20174;-63
2022/01/29 04:43:04;;;;;;;17.07;12.50;;;6.70;99.90;;;;;;5043562;28;20812;-63
2022/01/29 04:45:30;;;;;;;16.07;12.77;;;6.70;99.90;;;;;;5052060;28;20167;-64
2022/01/29 04:47:56;;;;;;;17.53;13.00;;;6.70;99.90;;;;;;5041172;28;20194;-64
2022/01/29 04:50:21;;;;;;;14.27;12.83;;;6.70;99.90;;;;;;5031954;28;20178;-64
2022/01/29 04:52:47;;;;;;;14.57;13.00;;;6.60;99.90;;;;;;5040243;28;20301;-64
2022/01/29 04:55:13;;;;;;;17.27;13.37;;;6.60;99.90;;;;;;5046630;28;20208;-64
2022/01/29 04:57:41;;;;;;;19.73;13.20;;;6.60;99.90;;;;;;5031874;28;20699;-63
2022/01/29 05:00:10;;;;;;;18.53;13.27;;;6.60;99.90;;;;;;5035018;28;20304;-64
2022/01/29 05:02:36;;;;;;;14.77;13.27;;;6.60;99.90;;;;;;5051641;28;20171;-63
2022/01/29 05:05:03;;;;;;;15.27;10.97;;;6.50;99.90;;;;;;5049182;28;20847;-63
2022/01/29 05:07:29;;;;;;;14.33;12.80;;;6.50;99.90;;;;;;5032304;28;20582;-64
2022/01/29 05:09:54;;;;;;;16.20;13.20;;;6.50;99.90;;;;;;5038976;28;20206;-64
2022/01/29 05:12:26;;;;;;;15.73;12.73;;;6.50;99.90;;;;;;5051228;28;20585;-63
2022/01/29 05:15:08;;;;;;;14.33;12.73;;;6.50;99.90;;;;;;5044582;28;20760;-64
2022/01/29 05:28:29;;;;;;;14.30;12.90;;;6.50;99.90;;;;;;5039651;28;20236;-64
2022/01/29 05:30:55;;;;;;;12.10;10.90;;;6.60;99.90;;;;;;5051323;28;20551;-63
2022/01/29 05:33:21;;;;;;;14.20;11.67;;;6.60;99.90;;;;;;5044325;28;20202;-63
2022/01/29 05:35:46;;;;;;;12.93;11.57;;;6.60;99.90;;;;;;5031374;28;20520;-63
2022/01/29 05:38:12;;;;;;;14.47;12.97;;;6.60;99.90;;;;;;5035684;28;20293;-63
2022/01/29 05:40:37;;;;;;;12.63;11.43;;;6.60;99.90;;;;;;5051316;28;20171;-63
2022/01/29 05:43:03;;;;;;;15.37;12.97;;;6.60;99.90;;;;;;5048066;28;20667;-63
2022/01/29 05:45:29;;;;;;;13.63;12.40;;;6.60;99.90;;;;;;5031415;28;20171;-63
2022/01/29 05:47:55;;;;;;;13.80;12.40;;;6.60;99.90;;;;;;5032026;28;20275;-63
2022/01/29 05:50:21;;;;;;;12.27;10.97;;;6.70;99.90;;;;;;5042579;28;20653;-63
2022/01/29 05:52:46;;;;;;;10.90;9.80;;;6.70;99.90;;;;;;5031029;28;20625;-63
2022/01/29 05:55:12;;;;;;;11.90;10.77;;;6.70;99.90;;;;;;5031357;28;20191;-63
2022/01/29 05:57:38;;;;;;;12.63;10.60;;;6.60;99.90;;;;;;5048789;28;20265;-63
2022/01/29 06:00:05;;;;;;;12.30;11.00;;;6.60;99.90;;;;;;5051093;28;20175;-63
2022/01/29 06:02:30;;;;;;;13.73;12.40;;;6.60;99.90;;;;;;5034528;28;20182;-64
2022/01/29 06:04:56;;;;;;;13.23;10.80;;;6.60;99.90;;;;;;5029794;28;20200;-64
2022/01/29 06:07:22;;;;;;;12.43;11.13;;;6.60;99.90;;;;;;5045257;28;20261;-63
2022/01/29 06:09:48;;;;;;;11.20;10.20;;;6.70;99.90;;;;;;5051027;28;20182;-64
2022/01/29 06:12:13;;;;;;;13.03;11.73;;;6.70;99.90;;;;;;5040424;28;20620;-64
2022/01/29 06:14:39;;;;;;;11.43;10.33;;;6.70;99.90;;;;;;5050736;28;20301;-64
2022/01/29 06:17:06;;;;;;;11.97;10.57;;;6.70;99.90;;;;;;5039879;28;20195;-64
2022/01/29 06:19:31;;;;;;;11.07;10.07;;;6.70;99.90;;;;;;5031012;28;20702;-64
2022/01/29 06:21:57;;;;;;;11.43;10.27;;;6.70;99.90;;;;;;5039607;28;20175;-64
2022/01/29 06:24:23;;;;;;;11.63;10.63;;;6.70;99.90;;;;;;5050788;28;20191;-64
2022/01/29 06:26:48;;;;;;;10.97;9.87;;;6.70;99.90;;;;;;5043229;28;20262;-64
2022/01/29 06:29:14;;;;;;;12.27;10.60;;;6.70;99.90;;;;;;5030887;28;20250;-64
2022/01/29 06:31:40;;;;;;;12.83;10.80;;;6.70;99.90;;;;;;5035925;28;20636;-64
2022/01/29 06:34:05;;;;;;;13.10;11.70;;;6.70;99.90;;;;;;5051054;28;20205;-64
2022/01/29 06:36:31;;;;;;;13.90;12.17;;;6.70;99.90;;;;;;5050822;28;20270;-64
2022/01/29 06:38:56;;;;;;;12.83;11.47;;;6.70;99.90;;;;;;5044144;28;20198;-64
2022/01/29 06:41:22;;;;;;;11.97;10.83;;;6.70;99.90;;;;;;5051191;28;20210;-64
2022/01/29 06:43:48;;;;;;;12.93;11.70;;;6.80;99.90;;;;;;5034079;28;20191;-64
2022/01/29 06:46:13;;;;;;;13.40;11.50;;;6.80;99.90;;;;;;5034204;28;20250;-64
2022/01/29 06:48:39;;;;;;;15.13;12.60;;;6.90;99.90;;;;;;5053786;28;20237;-64
2022/01/29 06:51:04;;;;;;;12.20;10.67;;;6.90;99.90;;;;;;5052959;28;20229;-64
2022/01/29 06:53:30;;;;;;;13.23;11.93;;;6.90;99.90;;;;;;5053230;28;20264;-64
2022/01/29 06:55:56;;;;;;;14.60;12.30;;;7.00;99.90;;;;;;5054122;28;20186;-64
2022/01/29 06:58:21;;;;;;;15.33;13.27;;;6.90;99.90;;;;;;5037825;28;20200;-64
2022/01/29 07:00:47;;;;;;;14.70;13.13;;;6.90;99.90;;;;;;5034087;28;20313;-64
2022/01/29 07:03:12;;;;;;;13.40;12.10;;;7.00;99.90;;;;;;5046231;28;20175;-64
2022/01/29 07:05:39;;;;;;;17.47;14.53;;;7.00;99.90;;;;;;5053898;28;20645;-64
2022/01/29 07:08:04;;;;;;;15.13;13.53;;;7.10;99.90;;;;;;5052154;28;20191;-64
2022/01/29 07:10:30;;;;;;;14.37;12.87;;;7.10;99.90;;;;;;5053727;28;20637;-64
2022/01/29 07:12:56;;;;;;;15.77;13.07;;;7.10;99.90;;;;;;5044107;28;20183;-64
2022/01/29 07:15:22;;;;;;;17.67;13.70;;;7.10;99.90;;;;;;5053803;28;20309;-64
2022/01/29 07:17:47;;;;;;;13.50;12.10;;;7.10;99.90;;;;;;5052985;28;20175;-64
2022/01/29 07:20:13;;;;;;;14.63;13.07;;;7.20;99.90;;;;;;5053582;28;20197;-64
2022/01/29 07:22:39;;;;;;;15.73;14.03;;;7.20;99.90;;;;;;5046651;28;20205;-64
2022/01/29 07:25:06;;;;;;;15.50;13.10;;;7.20;99.90;;;;;;5034143;28;20613;-64
2022/01/29 07:27:32;;;;;;;13.40;12.00;;;7.20;99.90;;;;;;5038452;28;20171;-64
2022/01/29 07:29:57;;;;;;;14.20;12.17;;;7.20;99.90;;;;;;5053447;28;20546;-64
2022/01/29 07:32:23;;;;;;;14.67;13.10;;;7.30;99.90;;;;;;5049386;28;20179;-64
2022/01/29 07:34:49;;;;;;;14.17;12.67;;;7.30;99.90;;;;;;5052401;28;20198;-64
2022/01/29 07:37:15;;;;;;;13.83;12.43;;;7.30;99.90;;;;;;5051215;28;20678;-63
2022/01/29 07:39:41;;;;;;;14.50;12.27;;;7.30;99.90;;;;;;5053040;28;20665;-64
2022/01/29 07:42:06;;;;;;;13.83;12.60;;;7.40;99.90;;;;;;5053014;28;20167;-65
2022/01/29 07:44:32;;;;;;;13.27;11.90;;;7.40;99.90;;;;;;5031899;28;20203;-64
2022/01/29 07:46:58;;;;;;;14.93;12.07;;;7.40;99.90;;;;;;5032003;28;20182;-64
2022/01/29 07:49:23;;;;;;;14.17;12.77;;;7.40;99.90;;;;;;5050570;28;20183;-63
2022/01/29 07:51:49;;;;;;;15.10;13.63;;;7.40;99.90;;;;;;5051536;28;20174;-63
2022/01/29 07:54:15;;;;;;;11.97;10.73;;;7.50;99.90;;;;;;5036377;28;20223;-65
2022/01/29 07:56:40;;;;;;;13.30;12.10;;;7.50;99.90;;;;;;5032932;28;20644;-63
2022/01/29 07:59:06;;;;;;;13.50;12.20;;;7.50;99.90;;;;;;5046583;28;20293;-63
2022/01/29 08:01:32;;;;;;;14.27;12.90;;;7.60;99.90;;;;;;5041163;28;20175;-64
2022/01/29 08:03:57;;;;;;;13.17;11.83;;;7.60;99.90;;;;;;5032395;28;20217;-63
2022/01/29 08:06:26;;;;;;;15.13;13.63;;;7.60;99.90;;;;;;5042058;28;20646;-65
2022/01/29 08:08:51;;;;;;;14.93;13.57;;;7.70;99.90;;;;;;5052412;28;20194;-65
2022/01/29 08:11:17;;;;;;;13.57;12.37;;;7.80;99.90;;;;;;5044360;28;20660;-65
2022/01/29 08:13:46;;;;;;;14.83;11.50;;;7.80;99.90;;;;;;5032182;28;20207;-65
2022/01/29 08:16:12;;;;;;;12.47;11.13;;;7.90;99.90;;;;;;5037494;28;20193;-64
2022/01/29 08:18:38;;;;;;;13.03;11.80;;;7.90;99.90;;;;;;5050972;28;20287;-63
2022/01/29 08:21:03;;;;;;;13.20;11.97;;;7.90;99.90;;;;;;5046177;28;20203;-64
2022/01/29 08:23:29;;;;;;;15.90;12.30;;;7.90;99.90;;;;;;5032202;28;20215;-63
2022/01/29 08:25:54;;;;;;;12.00;10.80;;;7.90;99.90;;;;;;5034825;28;20179;-63
2022/01/29 08:28:20;;;;;;;12.33;11.10;;;8.00;99.90;;;;;;5052418;28;20560;-65
2022/01/29 08:30:46;;;;;;;12.27;11.17;;;8.00;99.90;;;;;;5050851;28;20199;-65
2022/01/29 08:33:17;;;;;;;13.20;12.10;;;8.00;99.90;;;;;;5031891;28;20172;-63
2022/01/29 08:35:42;;;;;;;13.77;12.67;;;8.00;99.90;;;;;;5032143;28;20163;-64
2022/01/29 08:38:08;;;;;;;12.00;11.00;;;8.00;99.90;;;;;;5051460;28;20737;-65
2022/01/29 08:40:34;;;;;;;13.67;12.47;;;8.10;99.90;;;;;;5051825;28;20418;-63
2022/01/29 08:42:59;;;;;;;11.90;10.83;;;8.10;99.90;;;;;;5051030;28;20175;-63
2022/01/29 08:45:25;;;;;;;13.03;11.83;;;8.10;99.90;;;;;;5050616;28;20607;-64
2022/01/29 08:47:50;;;;;;;11.53;10.53;;;8.20;99.90;;;;;;5035583;28;20181;-65
2022/01/29 08:50:16;;;;;;;10.63;9.73;;;8.20;99.90;;;;;;5031881;28;20167;-63
2022/01/29 08:52:43;;;;;;;13.10;12.00;;;8.30;99.90;;;;;;5045429;28;20179;-64
2022/01/29 08:55:10;;;;;;;12.87;11.87;;;8.30;99.90;;;;;;5047878;28;20205;-64
2022/01/29 08:57:36;;;;;;;11.70;10.80;;;8.30;99.90;;;;;;5038667;28;20179;-63
2022/01/29 09:00:04;;;;;;;12.00;10.80;;;8.40;99.90;;;;;;5051595;28;20171;-63
2022/01/29 09:02:30;;;;;;;10.47;9.57;;;8.40;99.90;;;;;;5035360;28;20237;-63
2022/01/29 09:04:57;;;;;;;10.80;10.00;;;8.40;99.90;;;;;;5031717;28;20269;-64
2022/01/29 09:07:23;;;;;;;10.17;9.47;;;8.50;99.90;;;;;;5030398;28;20176;-65
2022/01/29 09:09:49;;;;;;;11.10;10.17;;;8.60;99.90;;;;;;5031607;28;20171;-66
2022/01/29 09:12:14;;;;;;;10.83;9.83;;;8.60;99.90;;;;;;5033432;28;20752;-64
2022/01/29 09:14:40;;;;;;;10.60;9.77;;;8.60;99.90;;;;;;5040641;28;20211;-65
2022/01/29 09:17:07;;;;;;;9.90;9.00;;;8.60;99.90;;;;;;5031858;28;20199;-64
2022/01/29 09:19:33;;;;;;;10.17;9.33;;;8.70;99.90;;;;;;5031417;28;20272;-64
2022/01/29 09:21:59;;;;;;;9.50;8.80;;;8.70;99.90;;;;;;5036847;28;20638;-64
2022/01/29 09:24:24;;;;;;;9.40;8.70;;;8.70;99.90;;;;;;5042205;28;20213;-65
2022/01/29 09:26:50;;;;;;;9.83;9.13;;;8.80;99.90;;;;;;5034635;28;20178;-64
2022/01/29 09:29:15;;;;;;;9.53;8.83;;;8.80;99.90;;;;;;5038669;28;20187;-64
2022/01/29 09:31:41;;;;;;;10.27;9.37;;;8.90;99.90;;;;;;5031439;28;20213;-65
2022/01/29 09:34:07;;;;;;;10.27;9.40;;;9.00;99.90;;;;;;5044027;28;20672;-64
2022/01/29 09:36:33;;;;;;;9.90;9.10;;;9.10;99.90;;;;;;5051301;28;20190;-65
2022/01/29 09:38:58;;;;;;;10.83;9.83;;;9.20;99.90;;;;;;5038511;28;20222;-64
2022/01/29 09:41:26;;;;;;;9.90;9.10;;;9.20;99.90;;;;;;5030092;28;20183;-65
2022/01/29 09:43:53;;;;;;;10.10;9.30;;;9.30;99.90;;;;;;5041160;28;20198;-65
2022/01/29 09:46:18;;;;;;;9.87;9.07;;;9.40;99.90;;;;;;5051143;28;20254;-63
2022/01/29 09:48:45;;;;;;;10.00;9.17;;;9.40;99.90;;;;;;5049394;28;20257;-65
2022/01/29 09:51:13;;;;;;;10.10;9.10;;;9.50;99.90;;;;;;5051177;28;20205;-65
2022/01/29 09:53:40;;;;;;;10.80;9.80;;;9.40;99.90;;;;;;5049148;28;20599;-65
2022/01/29 09:56:06;;;;;;;9.23;8.43;;;9.50;99.90;;;;;;5049790;28;20581;-65
2022/01/29 09:58:31;;;;;;;9.13;8.37;;;9.50;99.90;;;;;;5042759;28;20203;-65
2022/01/29 10:00:57;;;;;;;9.07;8.40;;;9.40;99.90;;;;;;5029726;28;20245;-65
2022/01/29 10:03:23;;;;;;;8.90;8.30;;;9.50;99.90;;;;;;5036248;28;20206;-64
2022/01/29 10:05:53;;;;;;;8.53;7.90;;;9.50;99.90;;;;;;5050722;28;20625;-65
2022/01/29 10:08:20;;;;;;;8.73;8.00;;;9.50;99.90;;;;;;5045822;28;20187;-65
2022/01/29 10:10:48;;;;;;;9.33;8.53;;;9.60;99.90;;;;;;5032982;28;20183;-65
2022/01/29 10:13:32;;;;;;;9.13;8.20;;;9.60;99.90;;;;;;5037858;28;20633;-65
2022/01/29 10:16:14;;;;;;;9.20;8.60;;;9.70;99.90;;;;;;5035354;28;20567;-64
2022/01/29 10:18:41;;;;;;;8.77;8.27;;;9.80;99.90;;;;;;5033487;28;20225;-64
2022/01/29 10:21:21;;;;;;;9.03;8.23;;;9.90;99.90;;;;;;5034339;28;20622;-64
2022/01/29 10:23:46;;;;;;;8.60;8.00;;;9.90;99.90;;;;;;5040840;28;20281;-64
2022/01/29 10:26:29;;;;;;;8.77;8.17;;;10.00;99.90;;;;;;5054462;28;20576;-64
2022/01/29 10:28:56;;;;;;;8.13;7.53;;;10.00;99.90;;;;;;5041744;28;20191;-64
2022/01/29 10:31:22;;;;;;;8.40;7.90;;;10.00;99.90;;;;;;5034419;28;20176;-64
2022/01/29 10:33:47;;;;;;;8.10;7.60;;;10.00;99.90;;;;;;5044518;28;20707;-64
2022/01/29 10:36:21;;;;;;;7.20;6.80;;;10.10;99.90;;;;;;5046153;28;20187;-64
2022/01/29 10:38:57;;;;;;;7.30;6.80;;;10.10;99.90;;;;;;5050680;28;20198;-64
2022/01/29 10:41:30;;;;;;;6.93;6.50;;;10.10;99.90;;;;;;5049791;28;20270;-64
2022/01/29 10:43:58;;;;;;;7.07;6.67;;;10.20;99.90;;;;;;5033990;28;20815;-64
2022/01/29 10:46:29;;;;;;;7.23;6.77;;;10.30;99.90;;;;;;5034277;28;20542;-64
2022/01/29 10:48:57;;;;;;;7.20;6.80;;;10.30;99.90;;;;;;5032833;28;20649;-64
2022/01/29 10:51:23;;;;;;;6.77;6.40;;;10.30;99.90;;;;;;5041069;28;20217;-65
2022/01/29 10:53:49;;;;;;;7.13;6.73;;;10.40;99.90;;;;;;5053399;28;20191;-65
2022/01/29 10:56:14;;;;;;;7.40;6.90;;;10.40;99.90;;;;;;5045556;28;20282;-64
2022/01/29 10:58:42;;;;;;;6.97;6.57;;;10.30;99.90;;;;;;5033702;28;20353;-64
2022/01/29 11:01:16;;;;;;;7.03;6.63;;;10.30;99.90;;;;;;5033937;28;20179;-64
2022/01/29 11:03:42;;;;;;;6.87;6.57;;;10.20;99.90;;;;;;5034091;28;20750;-65
2022/01/29 11:06:10;;;;;;;7.17;6.67;;;10.10;99.90;;;;;;5039744;28;20208;-64
2022/01/29 11:08:38;;;;;;;8.93;8.20;;;10.00;99.90;;;;;;5053629;28;20171;-64
2022/01/29 11:11:04;;;;;;;8.73;8.23;;;10.00;99.90;;;;;;5046970;28;20184;-64
2022/01/29 11:13:30;;;;;;;8.10;7.50;;;9.90;99.90;;;;;;5033277;28;20410;-65
2022/01/29 11:15:57;;;;;;;6.70;6.20;;;9.90;99.90;;;;;;5037850;28;20186;-65
2022/01/29 11:18:26;;;;;;;7.17;6.77;;;9.90;99.90;;;;;;5051609;28;20636;-63
2022/01/29 11:20:52;;;;;;;6.90;6.60;;;10.00;99.90;;;;;;5041570;28;20178;-66
2022/01/29 11:23:19;;;;;;;6.13;5.83;;;10.00;99.90;;;;;;5053059;28;20659;-65
2022/01/29 11:25:45;;;;;;;6.10;5.80;;;9.90;99.90;;;;;;5036885;28;20230;-65
2022/01/29 11:28:16;;;;;;;6.30;6.00;;;9.80;99.90;;;;;;5039923;28;20660;-65
2022/01/29 11:30:47;;;;;;;6.90;6.50;;;9.70;99.90;;;;;;5053443;28;20679;-65
2022/01/29 11:33:13;;;;;;;9.10;8.30;;;9.70;99.90;;;;;;5053175;28;20171;-65
2022/01/29 11:35:56;;;;;;;7.67;7.13;;;9.60;99.90;;;;;;5053289;28;20232;-65
2022/01/29 11:38:32;;;;;;;6.33;6.00;;;9.60;99.90;;;;;;5053081;28;20324;-65
2022/01/29 11:41:03;;;;;;;6.43;6.13;;;9.60;99.90;;;;;;5033375;28;20176;-65
2022/01/29 11:43:37;;;;;;;6.60;6.30;;;9.60;99.90;;;;;;5033088;28;20285;-65
2022/01/29 11:46:31;;;;;;;6.43;6.13;;;9.60;99.90;;;;;;5033241;28;20180;-65
2022/01/29 11:49:00;;;;;;;6.60;6.20;;;9.70;99.90;;;;;;5031808;28;20195;-65
2022/01/29 11:51:39;;;;;;;6.37;6.07;;;9.80;99.90;;;;;;5033017;28;20198;-65
2022/01/29 11:54:05;;;;;;;6.80;6.40;;;9.70;99.90;;;;;;5036163;28;20213;-64
2022/01/29 11:56:40;;;;;;;7.30;6.90;;;9.70;99.90;;;;;;5049420;28;20179;-64
2022/01/29 11:59:20;;;;;;;6.57;6.27;;;9.80;99.90;;;;;;5052444;28;20680;-64
2022/01/29 12:01:46;;;;;;;6.47;6.03;;;9.90;99.90;;;;;;5050915;28;20175;-64
2022/01/29 12:04:12;;;;;;;6.50;6.13;;;10.10;99.90;;;;;;5052600;28;20241;-64
2022/01/29 12:06:57;;;;;;;6.30;6.00;;;10.30;99.90;;;;;;5050069;28;20215;-64
2022/01/29 12:09:28;;;;;;;6.30;6.00;;;10.40;99.90;;;;;;5032787;28;20191;-64
2022/01/29 12:12:14;;;;;;;6.80;6.40;;;10.40;99.90;;;;;;5035977;28;20217;-64
2022/01/29 12:14:40;;;;;;;6.73;6.40;;;10.50;99.90;;;;;;5052194;28;20580;-64
2022/01/29 12:17:08;;;;;;;7.20;6.80;;;10.60;99.90;;;;;;5047226;28;20535;-65
2022/01/29 12:19:41;;;;;;;7.23;6.83;;;10.80;99.90;;;;;;5032500;28;20203;-64
2022/01/29 12:22:13;;;;;;;6.87;6.53;;;10.90;99.90;;;;;;5033386;28;20178;-64
2022/01/29 12:24:40;;;;;;;7.70;7.30;;;11.00;99.90;;;;;;5031863;28;20233;-64
2022/01/29 12:27:07;;;;;;;6.00;5.70;;;11.00;99.90;;;;;;5035207;28;20537;-65
2022/01/29 12:29:34;;;;;;;7.03;6.63;;;11.00;99.90;;;;;;5052271;28;20194;-64
2022/01/29 12:32:00;;;;;;;6.27;5.97;;;11.00;99.90;;;;;;5048581;28;20206;-65
2022/01/29 12:34:28;;;;;;;6.77;6.27;;;11.10;99.90;;;;;;5031953;28;20195;-65
2022/01/29 12:37:08;;;;;;;6.10;5.80;;;11.10;99.90;;;;;;5033042;28;20572;-65
2022/01/29 12:39:34;;;;;;;6.00;5.70;;;11.10;99.90;;;;;;5052116;28;20551;-65
2022/01/29 12:42:42;;;;;;;6.30;5.90;;;11.20;99.90;;;;;;5050239;28;20183;-65
2022/01/29 12:44:54;;;;;;;7.10;6.40;;;11.20;99.90;;;;;;5028897;28;20207;-65
2022/01/29 12:47:27;;;;;;;11.67;6.80;;;11.10;99.90;;;;;;5035438;28;20660;-65
2022/01/29 12:49:53;;;;;;;9.50;8.37;;;11.20;99.90;;;;;;5049566;28;20179;-65
2022/01/29 12:52:19;;;;;;;6.83;6.20;;;11.20;99.90;;;;;;5031512;28;20190;-65
2022/01/29 12:54:59;;;;;;;6.93;6.33;;;11.10;99.90;;;;;;5031097;28;20696;-65